createdAt,value
2018-04-17T00:00:19.477Z,100239.84
2018-04-17T00:02:45.444Z,100241.52
2018-04-17T00:05:11.408Z,100252.55
2018-04-17T00:07:37.365Z,100249.57
2018-04-17T00:10:03.349Z,100248.73
2018-04-17T00:12:29.320Z,100253.83
2018-04-17T00:14:55.256Z,100253.38
2018-04-17T00:17:22.190Z,100245.38
2018-04-17T00:19:48.153Z,100249.59
2018-04-17T00:22:14.102Z,100254.23
2018-04-17T00:24:40.130Z,100244.94
2018-04-17T00:27:06.066Z,100247.91
2018-04-17T00:29:32.025Z,100250.02
2018-04-17T00:31:58.012Z,100255.52
2018-04-17T00:34:23.960Z,100247.05
2018-04-17T00:36:49.944Z,100254.66
2018-04-17T00:39:15.897Z,100258.89
2018-04-17T00:41:41.837Z,100256.77
2018-04-17T00:44:07.795Z,100259.72
2018-04-17T00:46:33.778Z,100267.34
2018-04-17T00:48:59.757Z,100269.03
2018-04-17T00:51:25.705Z,100274.94
2018-04-17T00:53:51.669Z,100271.55
2018-04-17T00:56:17.627Z,100276.62
2018-04-17T00:58:43.589Z,100279.16
2018-04-17T01:01:09.573Z,100283.38
2018-04-17T01:03:35.526Z,100280.44
2018-04-17T01:06:01.488Z,100285.91
2018-04-17T01:08:27.477Z,100279.17
2018-04-17T01:10:53.418Z,100282.11
2018-04-17T01:13:19.352Z,100278.31
2018-04-17T01:15:45.289Z,100287.18
2018-04-17T01:18:11.243Z,100293.09
2018-04-17T01:20:37.190Z,100297.71
2018-04-17T01:23:03.147Z,100296.86
2018-04-17T01:25:29.085Z,100302.79
2018-04-17T01:27:55.061Z,100300.17
2018-04-17T01:30:20.986Z,100301.04
2018-04-17T01:32:46.928Z,100303.13
2018-04-17T01:35:12.870Z,100307.78
2018-04-17T01:37:38.842Z,100311.56
2018-04-17T01:40:04.783Z,100313.29
2018-04-17T01:42:30.740Z,100315.39
2018-04-17T01:44:56.730Z,100312.42
2018-04-17T01:47:22.657Z,100312.84
2018-04-17T01:49:48.637Z,100313.16
2018-04-17T01:52:14.604Z,100330.56
2018-04-17T01:54:40.580Z,100323.36
2018-04-17T01:57:06.553Z,100324.23
2018-04-17T01:59:32.549Z,100329.30
2018-04-17T02:01:58.518Z,100333.95
2018-04-17T02:04:24.454Z,100330.12
2018-04-17T02:06:50.460Z,100338.09
2018-04-17T02:09:16.420Z,100338.58
2018-04-17T02:11:42.397Z,100340.61
2018-04-17T02:14:08.347Z,100344.47
2018-04-17T02:16:34.324Z,100343.58
2018-04-17T02:19:00.288Z,100345.70
2018-04-17T02:21:26.248Z,100346.09
2018-04-17T02:23:52.205Z,100352.88
2018-04-17T02:26:18.213Z,100346.16
2018-04-17T02:28:44.195Z,100352.08
2018-04-17T02:31:10.131Z,100358.86
2018-04-17T02:33:36.078Z,100368.56
2018-04-17T02:36:02.063Z,100371.61
2018-04-17T02:38:28.105Z,100368.17
2018-04-17T02:40:54.546Z,100370.77
2018-04-17T02:43:20.512Z,100373.70
2018-04-17T02:45:46.466Z,100370.78
2018-04-17T02:48:12.401Z,100377.11
2018-04-17T02:50:38.366Z,100382.10
2018-04-17T02:53:04.301Z,100381.73
2018-04-17T02:55:30.233Z,100390.59
2018-04-17T02:57:56.190Z,100398.61
2018-04-17T03:00:22.155Z,100395.19
2018-04-17T03:02:48.150Z,100394.38
2018-04-17T03:07:46.533Z,100406.55
2018-04-17T03:10:12.496Z,100416.17
2018-04-17T03:12:38.520Z,100415.81
2018-04-17T03:15:04.500Z,100412.06
2018-04-17T03:17:30.459Z,100421.29
2018-04-17T03:19:56.424Z,100427.25
2018-04-17T03:22:22.356Z,100433.13
2018-04-17T03:24:48.317Z,100435.21
2018-04-17T03:27:14.312Z,100438.61
2018-04-17T03:29:40.278Z,100435.56
2018-04-17T03:32:06.246Z,100440.63
2018-04-17T03:34:32.217Z,100441.48
2018-04-17T03:36:58.196Z,100440.19
2018-04-17T03:39:24.258Z,100439.34
2018-04-17T03:41:50.197Z,100447.81
2018-04-17T03:46:48.529Z,100455.41
2018-04-17T03:49:17.357Z,100462.11
2018-04-17T03:51:43.356Z,100458.69
2018-04-17T03:56:41.522Z,100459.66
2018-04-17T03:59:09.828Z,100466.75
2018-04-17T04:01:35.800Z,100472.27
2018-04-17T04:04:01.782Z,100467.59
2018-04-17T04:06:27.810Z,100472.25
2018-04-17T04:08:53.789Z,100470.58
2018-04-17T04:11:19.733Z,100478.13
2018-04-17T04:13:45.677Z,100477.72
2018-04-17T04:16:11.663Z,100470.98
2018-04-17T04:18:37.639Z,100475.50
2018-04-17T04:21:03.597Z,100479.81
2018-04-17T04:23:29.560Z,100480.29
2018-04-17T04:25:55.502Z,100487.86
2018-04-17T04:28:21.458Z,100496.23
2018-04-17T04:30:47.425Z,100502.60
2018-04-17T04:33:13.413Z,100503.08
2018-04-17T04:35:39.370Z,100505.62
2018-04-17T04:38:05.764Z,100509.88
2018-04-17T04:40:31.852Z,100520.44
2018-04-17T04:42:57.922Z,100518.28
2018-04-17T04:45:23.953Z,100527.19
2018-04-17T04:47:49.947Z,100522.48
2018-04-17T04:50:15.885Z,100531.41
2018-04-17T04:52:41.819Z,100539.97
2018-04-17T04:55:07.781Z,100544.59
2018-04-17T04:57:33.754Z,100551.40
2018-04-17T04:59:59.722Z,100554.35
2018-04-17T05:02:29.965Z,100552.69
2018-04-17T05:04:56.015Z,100556.97
2018-04-17T05:07:22.037Z,100565.02
2018-04-17T05:09:48.016Z,100567.61
2018-04-17T05:12:13.984Z,100577.40
2018-04-17T05:14:39.977Z,100580.39
2018-04-17T05:17:05.932Z,100587.53
2018-04-17T05:19:31.929Z,100581.53
2018-04-17T05:21:57.936Z,100589.17
2018-04-17T05:24:23.903Z,100594.66
2018-04-17T05:26:49.851Z,100602.28
2018-04-17T05:29:15.819Z,100603.59
2018-04-17T05:31:41.795Z,100607.44
2018-04-17T05:34:07.745Z,100609.93
2018-04-17T05:36:33.686Z,100609.52
2018-04-17T05:38:59.623Z,100619.31
2018-04-17T05:41:25.580Z,100625.24
2018-04-17T05:43:51.542Z,100627.33
2018-04-17T05:46:17.495Z,100633.27
2018-04-17T05:48:43.481Z,100633.70
2018-04-17T05:51:09.433Z,100638.38
2018-04-17T05:53:35.413Z,100646.86
2018-04-17T05:56:01.421Z,100654.08
2018-04-17T05:58:27.347Z,100655.45
2018-04-17T06:00:53.301Z,100661.38
2018-04-17T06:03:19.277Z,100655.09
2018-04-17T06:05:45.248Z,100669.50
2018-04-17T06:08:11.202Z,100673.23
2018-04-17T06:10:37.527Z,100676.63
2018-04-17T06:13:03.482Z,100680.45
2018-04-17T06:15:29.435Z,100676.72
2018-04-17T06:17:55.415Z,100647.42
2018-04-17T06:20:21.373Z,100683.48
2018-04-17T06:22:47.354Z,100689.80
2018-04-17T06:25:13.314Z,100658.00
2018-04-17T06:27:39.286Z,100700.39
2018-04-17T06:30:05.311Z,100706.79
2018-04-17T06:32:31.277Z,100705.95
2018-04-17T06:34:57.228Z,100710.61
2018-04-17T06:37:23.248Z,100719.08
2018-04-17T06:39:49.225Z,100721.17
2018-04-17T06:42:15.185Z,100725.42
2018-04-17T06:44:41.168Z,100731.41
2018-04-17T06:47:07.167Z,100735.23
2018-04-17T06:49:33.136Z,100731.78
2018-04-17T06:51:59.169Z,100736.10
2018-04-17T06:54:25.363Z,100746.20
2018-04-17T06:56:51.329Z,100752.55
2018-04-17T06:59:17.303Z,100755.16
2018-04-17T07:01:43.271Z,100764.89
2018-04-17T07:04:09.244Z,100761.44
2018-04-17T07:06:35.206Z,100764.89
2018-04-17T07:09:01.182Z,100770.39
2018-04-17T07:11:27.145Z,100771.21
2018-04-17T07:13:53.133Z,100787.31
2018-04-17T07:16:19.089Z,100786.06
2018-04-17T07:18:45.074Z,100796.23
2018-04-17T07:21:11.040Z,100801.28
2018-04-17T07:23:37.027Z,100802.97
2018-04-17T07:26:02.983Z,100804.69
2018-04-17T07:28:29.373Z,100810.56
2018-04-17T07:30:55.337Z,100809.75
2018-04-17T07:33:21.318Z,100819.07
2018-04-17T07:35:47.343Z,100827.54
2018-04-17T07:38:13.300Z,100833.52
2018-04-17T07:40:39.268Z,100836.43
2018-04-17T07:43:05.251Z,100830.12
2018-04-17T07:45:31.209Z,100829.23
2018-04-17T07:47:57.193Z,100835.21
2018-04-17T07:50:23.169Z,100830.11
2018-04-17T07:52:49.140Z,100831.39
2018-04-17T07:55:15.110Z,100835.20
2018-04-17T07:57:41.132Z,100842.00
2018-04-17T08:00:07.061Z,100842.84
2018-04-17T08:02:33.023Z,100851.72
2018-04-17T08:04:59.031Z,100858.48
2018-04-17T08:07:25.007Z,100862.78
2018-04-17T08:09:50.985Z,100869.13
2018-04-17T08:12:16.969Z,100877.48
2018-04-17T08:14:42.979Z,100877.09
2018-04-17T08:17:08.935Z,100884.34
2018-04-17T08:19:36.621Z,100891.11
2018-04-17T08:22:02.608Z,100893.20
2018-04-17T08:24:28.581Z,100891.43
2018-04-17T08:26:54.635Z,100896.09
2018-04-17T08:29:20.583Z,100901.59
2018-04-17T08:31:46.550Z,100904.25
2018-04-17T08:34:12.532Z,100906.80
2018-04-17T08:36:38.499Z,100902.92
2018-04-17T08:39:04.474Z,100904.27
2018-04-17T08:41:30.409Z,100912.34
2018-04-17T08:43:56.385Z,100911.45
2018-04-17T08:46:22.369Z,100908.09
2018-04-17T08:48:48.334Z,100911.97
2018-04-17T08:51:14.271Z,100911.06
2018-04-17T08:53:40.458Z,100912.83
2018-04-17T08:56:06.433Z,100916.16
2018-04-17T08:58:32.469Z,100912.80
2018-04-17T09:00:58.432Z,100919.20
2018-04-17T09:03:24.396Z,100919.16
2018-04-17T09:05:50.392Z,100918.67
2018-04-17T09:08:16.329Z,100922.96
2018-04-17T09:10:42.315Z,100927.61
2018-04-17T09:13:08.355Z,100931.44
2018-04-17T09:15:34.306Z,100932.31
2018-04-17T09:18:00.258Z,100933.59
2018-04-17T09:20:26.233Z,100932.74
2018-04-17T09:22:52.207Z,100929.32
2018-04-17T09:25:18.173Z,100933.08
2018-04-17T09:27:44.121Z,100935.66
2018-04-17T09:30:10.053Z,100931.86
2018-04-17T09:32:36.012Z,100936.73
2018-04-17T09:35:01.985Z,100935.47
2018-04-17T09:37:27.938Z,100935.92
2018-04-17T09:39:53.917Z,100940.61
2018-04-17T09:42:19.885Z,100934.25
2018-04-17T09:44:45.860Z,100936.81
2018-04-17T09:47:11.944Z,100940.67
2018-04-17T09:49:38.268Z,100941.09
2018-04-17T09:52:04.267Z,100941.11
2018-04-17T09:54:30.245Z,100941.55
2018-04-17T09:56:56.191Z,100947.52
2018-04-17T09:59:22.178Z,100939.89
2018-04-17T10:01:48.112Z,100940.70
2018-04-17T10:04:14.076Z,100939.02
2018-04-17T10:06:40.030Z,100938.11
2018-04-17T10:09:06.015Z,100938.17
2018-04-17T10:11:31.964Z,100940.73
2018-04-17T10:13:57.916Z,100936.48
2018-04-17T10:16:23.860Z,100939.47
2018-04-17T10:18:49.797Z,100944.16
2018-04-17T10:21:15.755Z,100942.03
2018-04-17T10:23:41.747Z,100944.14
2018-04-17T10:26:07.686Z,100947.55
2018-04-17T10:28:33.686Z,100948.39
2018-04-17T10:30:59.748Z,100946.73
2018-04-17T10:33:25.708Z,100948.42
2018-04-17T10:35:51.698Z,100945.02
2018-04-17T10:38:17.653Z,100943.69
2018-04-17T10:40:43.649Z,100942.81
2018-04-17T10:43:09.624Z,100945.00
2018-04-17T10:48:08.096Z,100947.57
2018-04-17T10:50:34.049Z,100945.05
2018-04-17T10:52:59.981Z,100950.98
2018-04-17T10:55:25.912Z,100938.64
2018-04-17T10:57:51.888Z,100935.30
2018-04-17T11:00:17.838Z,100944.19
2018-04-17T11:02:43.819Z,100935.73
2018-04-17T11:05:09.772Z,100937.00
2018-04-17T11:07:35.748Z,100944.63
2018-04-17T11:10:01.716Z,100947.20
2018-04-17T11:12:27.673Z,100944.21
2018-04-17T11:14:53.645Z,100947.19
2018-04-17T11:17:19.606Z,100953.58
2018-04-17T11:19:45.557Z,100951.02
2018-04-17T11:22:11.546Z,100954.00
2018-04-17T11:24:37.520Z,100958.64
2018-04-17T11:27:03.477Z,100949.30
2018-04-17T11:29:29.460Z,100954.83
2018-04-17T11:31:55.432Z,100954.83
2018-04-17T11:34:21.402Z,100953.55
2018-04-17T11:36:47.365Z,100952.28
2018-04-17T11:39:13.350Z,100953.98
2018-04-17T11:41:39.308Z,100956.53
2018-04-17T11:44:05.297Z,100947.19
2018-04-17T11:46:31.267Z,100954.40
2018-04-17T11:48:57.242Z,100951.85
2018-04-17T11:51:23.186Z,100953.52
2018-04-17T11:53:49.212Z,100951.02
2018-04-17T11:56:15.210Z,100952.27
2018-04-17T11:58:41.209Z,100956.10
2018-04-17T12:01:07.207Z,100951.44
2018-04-17T12:03:33.186Z,100949.75
2018-04-17T12:05:59.130Z,100953.13
2018-04-17T12:08:25.096Z,100953.98
2018-04-17T12:10:51.051Z,100954.40
2018-04-17T12:13:17.038Z,100957.38
2018-04-17T12:15:42.977Z,100954.39
2018-04-17T12:18:08.942Z,100956.11
2018-04-17T12:20:34.894Z,100954.39
2018-04-17T12:23:00.867Z,100954.39
2018-04-17T12:25:26.815Z,100947.59
2018-04-17T12:27:52.754Z,100943.75
2018-04-17T12:30:18.697Z,100938.27
2018-04-17T12:32:44.799Z,100944.22
2018-04-17T12:35:10.832Z,100942.09
2018-04-17T12:37:36.870Z,100945.06
2018-04-17T12:40:02.881Z,100944.64
2018-04-17T12:42:28.889Z,100941.69
2018-04-17T12:44:54.928Z,100941.23
2018-04-17T12:47:20.997Z,100937.44
2018-04-17T12:49:46.950Z,100945.91
2018-04-17T12:52:12.933Z,100946.34
2018-04-17T12:54:38.867Z,100944.20
2018-04-17T12:57:04.848Z,100942.52
2018-04-17T12:59:32.830Z,100948.02
2018-04-17T13:01:58.854Z,100952.69
2018-04-17T13:04:24.868Z,100947.62
2018-04-17T13:06:50.873Z,100950.14
2018-04-17T13:09:16.959Z,100954.83
2018-04-17T13:11:42.935Z,100949.30
2018-04-17T13:14:08.942Z,100955.69
2018-04-17T13:16:34.977Z,100961.19
2018-04-17T13:19:02.045Z,100958.64
2018-04-17T13:21:28.063Z,100963.75
2018-04-17T13:23:54.042Z,100965.87
2018-04-17T13:26:19.973Z,100969.69
2018-04-17T13:28:46.493Z,100964.58
2018-04-17T13:31:12.426Z,100972.23
2018-04-17T13:33:38.396Z,100964.58
2018-04-17T13:36:04.366Z,100967.15
2018-04-17T13:38:30.405Z,100973.09
2018-04-17T13:40:56.462Z,100970.11
2018-04-17T13:43:23.724Z,100973.95
2018-04-17T13:45:49.777Z,100962.48
2018-04-17T13:48:15.963Z,100965.86
2018-04-17T13:50:43.270Z,100963.76
2018-04-17T13:53:09.308Z,100969.27
2018-04-17T13:55:35.351Z,100975.63
2018-04-17T13:58:01.482Z,100972.25
2018-04-17T14:00:28.791Z,100973.09
2018-04-17T14:02:54.872Z,100976.90
2018-04-17T14:05:20.938Z,100978.17
2018-04-17T14:07:46.959Z,100976.89
2018-04-17T14:10:13.042Z,100966.71
2018-04-17T14:12:39.118Z,100977.73
2018-04-17T14:15:05.152Z,100970.93
2018-04-17T14:17:31.203Z,100948.87
2018-04-17T14:19:57.298Z,100972.64
2018-04-17T14:22:23.317Z,100975.20
2018-04-17T14:24:49.584Z,100973.08
2018-04-17T14:27:15.663Z,100968.41
2018-04-17T14:29:41.804Z,100971.39
2018-04-17T14:32:07.873Z,100970.95
2018-04-17T14:34:33.940Z,100971.81
2018-04-17T14:37:00.624Z,100969.67
2018-04-17T14:39:26.639Z,100965.84
2018-04-17T14:41:52.737Z,100962.89
2018-04-17T14:44:18.729Z,100954.84
2018-04-17T14:46:44.765Z,100959.50
2018-04-17T14:49:10.911Z,100960.77
2018-04-17T14:51:37.274Z,100961.16
2018-04-17T14:54:03.346Z,100962.87
2018-04-17T14:56:29.425Z,100958.66
2018-04-17T14:58:55.420Z,100962.88
2018-04-17T15:01:22.030Z,100959.06
2018-04-17T15:03:49.065Z,100958.64
2018-04-17T15:06:15.137Z,100955.23
2018-04-17T15:08:41.180Z,100956.08
2018-04-17T15:11:07.197Z,100956.94
2018-04-17T15:13:33.243Z,100963.73
2018-04-17T15:15:59.334Z,100957.77
2018-04-17T15:18:25.488Z,100962.04
2018-04-17T15:20:51.541Z,100963.73
2018-04-17T15:23:17.554Z,100965.00
2018-04-17T15:25:43.604Z,100969.68
2018-04-17T15:28:09.688Z,100963.72
2018-04-17T15:30:35.664Z,100964.16
2018-04-17T15:33:01.715Z,100966.25
2018-04-17T15:35:27.732Z,100963.30
2018-04-17T15:37:53.797Z,100959.05
2018-04-17T15:40:20.551Z,100961.59
2018-04-17T15:42:46.702Z,100965.43
2018-04-17T15:45:13.612Z,100964.59
2018-04-17T15:47:40.583Z,100968.81
2018-04-17T15:50:10.483Z,100965.84
2018-04-17T15:52:36.496Z,100966.69
2018-04-17T15:55:02.511Z,100967.56
2018-04-17T15:57:28.560Z,100969.27
2018-04-17T15:59:55.379Z,100967.55
2018-04-17T16:02:21.392Z,100971.39
2018-04-17T16:04:47.465Z,100973.51
2018-04-17T16:07:13.516Z,100967.98
2018-04-17T16:09:40.505Z,100962.45
2018-04-17T16:12:06.544Z,100964.16
2018-04-17T16:14:33.021Z,100964.16
2018-04-17T16:16:59.077Z,100969.25
2018-04-17T16:19:25.641Z,100965.85
2018-04-17T16:21:52.177Z,100970.94
2018-04-17T16:24:19.307Z,100967.97
2018-04-17T16:26:45.346Z,100970.09
2018-04-17T16:29:11.458Z,100969.27
2018-04-17T16:31:37.539Z,100967.13
2018-04-17T16:34:03.546Z,100968.39
2018-04-17T16:36:30.569Z,100957.37
2018-04-17T16:38:56.670Z,100964.16
2018-04-17T16:41:22.864Z,100965.87
2018-04-17T16:43:48.996Z,100970.97
2018-04-17T16:46:15.530Z,100970.53
2018-04-17T16:48:41.631Z,100970.97
2018-04-17T16:51:07.883Z,100970.09
2018-04-17T16:53:33.896Z,100979.02
2018-04-17T16:55:59.972Z,100982.43
2018-04-17T16:58:26.020Z,100979.03
2018-04-17T17:00:52.073Z,100978.61
2018-04-17T17:03:18.183Z,100981.59
2018-04-17T17:05:45.124Z,100988.80
2018-04-17T17:08:11.189Z,100986.67
2018-04-17T17:10:37.224Z,100985.39
2018-04-17T17:13:03.253Z,100992.61
2018-04-17T17:15:29.446Z,100988.81
2018-04-17T17:17:55.406Z,100988.78
2018-04-17T17:20:21.462Z,100988.80
2018-04-17T17:22:47.375Z,100988.80
2018-04-17T17:25:13.376Z,100993.47
2018-04-17T17:27:39.305Z,100993.47
2018-04-17T17:30:05.276Z,100998.56
2018-04-17T17:32:31.327Z,100981.98
2018-04-17T17:34:57.267Z,100992.21
2018-04-17T17:37:23.234Z,101001.12
2018-04-17T17:39:49.207Z,101001.11
2018-04-17T17:42:15.161Z,101009.16
2018-04-17T17:44:41.320Z,101015.95
2018-04-17T17:47:07.340Z,101018.08
2018-04-17T17:49:33.317Z,101025.71
2018-04-17T17:51:59.370Z,101022.23
2018-04-17T17:54:25.344Z,101024.34
2018-04-17T17:56:51.352Z,101026.48
2018-04-17T17:59:17.300Z,101029.82
2018-04-17T18:01:43.256Z,101033.60
2018-04-17T18:04:09.241Z,101035.27
2018-04-17T18:06:35.183Z,101038.64
2018-04-17T18:09:01.209Z,101044.12
2018-04-17T18:11:29.177Z,101040.70
2018-04-17T18:13:55.146Z,101041.93
2018-04-17T18:16:21.161Z,101039.80
2018-04-17T18:18:47.187Z,101046.66
2018-04-17T18:21:13.575Z,101050.45
2018-04-17T18:23:39.581Z,101057.02
2018-04-17T18:26:06.642Z,101063.50
2018-04-17T18:28:32.827Z,101061.78
2018-04-17T18:30:59.077Z,101064.67
2018-04-17T18:33:25.084Z,101071.31
2018-04-17T18:35:53.484Z,101071.22
2018-04-17T18:38:20.513Z,101077.61
2018-04-17T18:40:46.504Z,101079.06
2018-04-17T18:43:13.489Z,101080.38
2018-04-17T18:45:39.759Z,101086.58
2018-04-17T18:48:08.835Z,101087.69
2018-04-17T18:50:37.061Z,101088.61
2018-04-17T18:53:05.391Z,101097.21
2018-04-17T18:55:34.725Z,101096.71
2018-04-17T18:58:01.615Z,101098.91
2018-04-17T19:00:27.760Z,101098.44
2018-04-17T19:02:53.892Z,101105.22
2018-04-17T19:05:20.692Z,101109.00
2018-04-17T19:07:47.047Z,101113.56
2018-04-17T19:10:13.806Z,101116.97
2018-04-17T19:12:39.974Z,101118.74
2018-04-17T19:15:06.017Z,101120.06
2018-04-17T19:17:32.180Z,101130.31
2018-04-17T19:19:58.473Z,101130.38
2018-04-17T19:22:24.608Z,101131.52
2018-04-17T19:24:50.710Z,101130.51
2018-04-17T19:27:18.944Z,101136.26
2018-04-17T19:29:47.184Z,101136.17
2018-04-17T19:32:13.230Z,101138.42
2018-04-17T19:34:39.392Z,101136.36
2018-04-17T19:37:05.419Z,101135.94
2018-04-17T19:39:31.438Z,101133.11
2018-04-17T19:41:57.417Z,101143.83
2018-04-17T19:44:23.409Z,101145.87
2018-04-17T19:46:49.369Z,101144.40
2018-04-17T19:49:19.050Z,101145.14
2018-04-17T19:51:45.036Z,101149.62
2018-04-17T19:54:12.050Z,101152.33
2018-04-17T19:56:38.210Z,101157.71
2018-04-17T19:59:04.337Z,101162.81
2018-04-17T20:01:30.455Z,101155.26
2018-04-17T20:03:56.579Z,101163.20
2018-04-17T20:06:23.376Z,101162.06
2018-04-17T20:08:49.476Z,101172.14
2018-04-17T20:11:15.678Z,101161.57
2018-04-17T20:13:41.800Z,101166.66
2018-04-17T20:16:07.932Z,101162.72
2018-04-17T20:18:33.964Z,101166.58
2018-04-17T20:21:00.757Z,101167.31
2018-04-17T20:23:27.129Z,101171.51
2018-04-17T20:25:53.268Z,101170.08
2018-04-17T20:28:20.668Z,101173.34
2018-04-17T20:30:46.711Z,101173.11
2018-04-17T20:33:12.681Z,101175.19
2018-04-17T20:35:39.735Z,101173.49
2018-04-17T20:38:06.853Z,101169.73
2018-04-17T20:40:33.637Z,101167.36
2018-04-17T20:42:59.742Z,101169.59
2018-04-17T20:45:26.824Z,101167.77
2018-04-17T20:47:52.892Z,101169.94
2018-04-17T20:50:18.928Z,101169.44
2018-04-17T20:52:44.899Z,101168.77
2018-04-17T20:55:10.890Z,101154.03
2018-04-17T20:57:36.911Z,101168.02
2018-04-17T21:00:02.881Z,101171.00
2018-04-17T21:02:29.106Z,101171.30
2018-04-17T21:04:55.324Z,101177.56
2018-04-17T21:07:21.365Z,101175.23
2018-04-17T21:09:47.349Z,101180.31
2018-04-17T21:12:13.400Z,101181.52
2018-04-17T21:14:39.407Z,101182.75
2018-04-17T21:17:05.496Z,101187.97
2018-04-17T21:19:31.506Z,101189.91
2018-04-17T21:21:57.581Z,101113.23
2018-04-17T21:24:23.615Z,101186.73
2018-04-17T21:26:49.673Z,101189.47
2018-04-17T21:29:15.665Z,101201.01
2018-04-17T21:31:41.856Z,101199.69
2018-04-17T21:34:07.928Z,101203.03
2018-04-17T21:36:33.981Z,101205.96
2018-04-17T21:39:00.047Z,101203.01
2018-04-17T21:41:26.172Z,101201.59
2018-04-17T21:43:52.225Z,101211.95
2018-04-17T21:46:18.288Z,101218.22
2018-04-17T21:48:44.398Z,101214.45
2018-04-17T21:51:10.440Z,101213.89
2018-04-17T21:53:36.485Z,101226.08
2018-04-17T21:56:02.531Z,101219.33
2018-04-17T21:58:28.532Z,101227.03
2018-04-17T22:00:54.558Z,101227.96
2018-04-17T22:03:20.632Z,101228.02
2018-04-17T22:05:46.685Z,101230.77
2018-04-17T22:08:12.731Z,101226.60
2018-04-17T22:10:38.730Z,101229.02
2018-04-17T22:13:04.717Z,101225.62
2018-04-17T22:15:30.715Z,101224.28
2018-04-17T22:17:56.770Z,101222.28
2018-04-17T22:20:22.849Z,101222.12
2018-04-17T22:22:48.933Z,101220.23
2018-04-17T22:25:14.971Z,101231.09
2018-04-17T22:27:41.001Z,101229.47
2018-04-17T22:30:07.157Z,101232.60
2018-04-17T22:32:33.374Z,101234.56
2018-04-17T22:34:59.480Z,101238.12
2018-04-17T22:37:25.531Z,101243.67
2018-04-17T22:39:52.315Z,101249.31
2018-04-17T22:42:18.536Z,101253.39
2018-04-17T22:44:44.573Z,101259.84
2018-04-17T22:47:10.616Z,101266.42
2018-04-17T22:49:37.771Z,101268.13
2018-04-17T22:52:03.824Z,101269.51
2018-04-17T22:54:29.857Z,101271.30
2018-04-17T22:56:55.913Z,101275.66
2018-04-17T22:59:21.969Z,101283.94
2018-04-17T23:01:47.993Z,101283.43
2018-04-17T23:04:14.005Z,101291.33
2018-04-17T23:06:40.074Z,101297.78
2018-04-17T23:09:06.071Z,101291.80
2018-04-17T23:11:32.116Z,101293.64
2018-04-17T23:13:58.123Z,101299.64
2018-04-17T23:16:24.137Z,101296.72
2018-04-17T23:18:50.182Z,101297.40
2018-04-17T23:21:16.252Z,101293.57
2018-04-17T23:23:42.273Z,101288.69
2018-04-17T23:26:08.367Z,101292.22
2018-04-17T23:28:34.403Z,101293.32
2018-04-17T23:31:00.421Z,101285.86
2018-04-17T23:33:26.415Z,101281.13
2018-04-17T23:35:52.545Z,101285.81
2018-04-17T23:38:18.554Z,101282.91
2018-04-17T23:40:44.590Z,101293.31
2018-04-17T23:43:10.585Z,101290.63
2018-04-17T23:45:36.616Z,101291.55
2018-04-17T23:48:02.614Z,101294.83
2018-04-17T23:50:28.681Z,101287.95
2018-04-17T23:52:54.730Z,101298.80
2018-04-17T23:55:20.733Z,101302.30
2018-04-17T23:57:46.758Z,101293.75
